createdAt,value
2022-09-06T00:03:17.343Z,19.66
2022-09-06T00:08:20.468Z,19.93
2022-09-06T00:13:23.632Z,19.69
2022-09-06T00:18:26.595Z,19.74
2022-09-06T00:23:29.627Z,19.63
2022-09-06T00:28:33.222Z,19.61
2022-09-06T00:33:36.272Z,19.70
2022-09-06T00:38:39.459Z,19.57
2022-09-06T00:43:43.305Z,19.43
2022-09-06T00:48:49.666Z,19.50
2022-09-06T00:53:52.729Z,19.40
2022-09-06T00:58:56.031Z,19.19
2022-09-06T01:03:59.358Z,19.02
2022-09-06T01:09:33.407Z,18.98
2022-09-06T01:14:36.525Z,18.88
2022-09-06T01:20:27.670Z,18.74
2022-09-06T01:25:52.698Z,18.56
2022-09-06T01:31:03.013Z,18.31
2022-09-06T01:36:12.782Z,18.03
2022-09-06T01:41:15.727Z,17.72
2022-09-06T01:46:41.680Z,17.50
2022-09-06T01:52:09.405Z,17.35
2022-09-06T01:57:33.248Z,17.42
2022-09-06T02:03:05.245Z,17.39
2022-09-06T02:08:40.753Z,17.38
2022-09-06T02:13:59.726Z,17.31
2022-09-06T02:19:20.628Z,17.18
2022-09-06T02:24:31.058Z,16.96
2022-09-06T02:29:35.627Z,16.68
2022-09-06T02:34:40.317Z,16.40
2022-09-06T02:39:44.068Z,16.20
2022-09-06T02:44:47.082Z,16.10
2022-09-06T02:49:53.199Z,16.01
2022-09-06T02:54:56.255Z,15.93
2022-09-06T02:59:59.321Z,15.83
2022-09-06T03:05:03.210Z,15.75
2022-09-06T03:10:06.671Z,15.66
2022-09-06T03:15:10.647Z,15.62
2022-09-06T03:20:14.384Z,15.57
2022-09-06T03:25:17.999Z,15.50
2022-09-06T03:30:21.110Z,15.43
2022-09-06T03:35:24.248Z,15.42
2022-09-06T03:40:27.724Z,15.37
2022-09-06T03:45:30.979Z,15.35
2022-09-06T03:50:34.012Z,15.27
2022-09-06T03:55:37.157Z,15.25
2022-09-06T04:00:40.305Z,15.19
2022-09-06T04:05:47.017Z,15.27
2022-09-06T04:10:51.259Z,15.37
2022-09-06T04:15:54.155Z,15.15
2022-09-06T04:20:57.756Z,15.05
2022-09-06T04:26:01.115Z,15.01
2022-09-06T04:31:05.339Z,14.92
2022-09-06T04:36:11.213Z,14.92
2022-09-06T04:41:16.579Z,14.95
2022-09-06T04:46:28.491Z,14.95
2022-09-06T04:51:31.976Z,14.98
2022-09-06T04:56:35.160Z,15.01
2022-09-06T05:01:38.126Z,15.14
2022-09-06T05:06:41.946Z,15.32
2022-09-06T05:11:44.921Z,15.56
2022-09-06T05:16:57.705Z,15.77
2022-09-06T05:22:00.904Z,15.99
2022-09-06T05:27:05.791Z,16.22
2022-09-06T05:32:08.899Z,16.52
2022-09-06T05:37:12.105Z,16.87
2022-09-06T05:42:19.109Z,17.22
2022-09-06T05:47:22.704Z,17.62
2022-09-06T05:52:25.708Z,18.10
2022-09-06T05:57:31.559Z,18.61
2022-09-06T06:02:34.683Z,19.09
2022-09-06T06:07:37.959Z,19.73
2022-09-06T06:12:41.118Z,22.41
2022-09-06T06:17:44.168Z,24.98
2022-09-06T06:22:47.501Z,27.02
2022-09-06T06:27:50.578Z,28.76
2022-09-06T06:32:53.784Z,29.93
2022-09-06T06:37:57.496Z,30.87
2022-09-06T06:43:00.725Z,31.72
2022-09-06T06:48:03.974Z,32.18
2022-09-06T06:53:07.089Z,33.19
2022-09-06T06:58:10.108Z,32.63
2022-09-06T07:03:13.881Z,32.59
2022-09-06T07:08:17.585Z,33.34
2022-09-06T07:13:21.366Z,33.27
2022-09-06T07:18:24.543Z,32.85
2022-09-06T07:28:55.434Z,31.19
2022-09-06T07:33:59.729Z,32.01
2022-09-06T07:39:02.816Z,31.53
2022-09-06T07:44:07.411Z,31.87
2022-09-06T07:49:11.239Z,32.19
2022-09-06T07:54:31.721Z,31.63
2022-09-06T07:59:34.943Z,31.40
2022-09-06T08:04:39.009Z,31.75
2022-09-06T08:09:42.593Z,30.80
2022-09-06T08:14:46.498Z,31.37
2022-09-06T08:19:49.684Z,31.62
2022-09-06T08:24:53.544Z,31.10
2022-09-06T08:29:59.090Z,31.57
2022-09-06T08:35:02.084Z,31.50
2022-09-06T08:40:05.373Z,31.09
2022-09-06T08:45:12.965Z,31.52
2022-09-06T08:50:15.952Z,31.11
2022-09-06T08:56:04.853Z,31.84
2022-09-06T09:01:14.698Z,31.02
2022-09-06T09:06:17.909Z,30.97
2022-09-06T09:11:23.388Z,31.92
2022-09-06T09:16:27.049Z,31.16
2022-09-06T09:21:34.618Z,31.84
2022-09-06T09:26:53.811Z,32.45
2022-09-06T09:31:57.683Z,32.12
2022-09-06T09:42:46.466Z,32.45
2022-09-06T09:47:49.736Z,31.47
2022-09-06T09:52:52.732Z,31.09
2022-09-06T09:57:56.544Z,31.50
2022-09-06T10:02:59.748Z,31.91
2022-09-06T10:08:03.085Z,31.91
2022-09-06T10:13:27.407Z,32.03
2022-09-06T10:18:31.111Z,31.13
2022-09-06T10:29:50.572Z,31.66
2022-09-06T10:35:15.605Z,32.64
2022-09-06T10:40:31.281Z,31.12
2022-09-06T10:45:47.651Z,31.36
2022-09-06T10:51:09.343Z,31.39
2022-09-06T10:56:18.155Z,31.89
2022-09-06T11:01:33.620Z,31.38
2022-09-06T11:06:46.471Z,31.73
2022-09-06T11:11:58.566Z,29.98
2022-09-06T11:17:16.382Z,29.31
2022-09-06T11:22:47.621Z,30.23
2022-09-06T11:27:59.657Z,30.79
2022-09-06T11:33:28.839Z,31.36
2022-09-06T11:38:32.143Z,31.28
2022-09-06T11:43:52.647Z,31.58
2022-09-06T11:49:02.840Z,31.61
2022-09-06T11:54:15.245Z,32.24
2022-09-06T11:59:21.799Z,32.53
2022-09-06T12:04:24.796Z,32.53
2022-09-06T12:09:37.940Z,32.39
2022-09-06T12:14:46.506Z,32.54
2022-09-06T12:19:49.499Z,32.08
2022-09-06T12:25:31.030Z,31.99
2022-09-06T12:30:43.361Z,32.12
2022-09-06T12:36:04.657Z,31.99
2022-09-06T12:41:10.168Z,32.39
2022-09-06T12:46:13.227Z,32.22
2022-09-06T12:51:20.832Z,31.91
2022-09-06T12:56:29.358Z,32.70
2022-09-06T13:01:36.536Z,32.18
2022-09-06T13:06:48.269Z,32.13
2022-09-06T13:11:53.626Z,33.11
2022-09-06T13:17:00.351Z,31.06
2022-09-06T13:22:07.828Z,33.24
2022-09-06T13:27:27.515Z,32.38
2022-09-06T13:32:30.988Z,32.81
2022-09-06T13:37:36.693Z,33.34
2022-09-06T13:42:39.917Z,33.30
2022-09-06T13:47:42.921Z,32.23
2022-09-06T13:52:46.102Z,33.22
2022-09-06T13:57:49.306Z,33.08
2022-09-06T14:02:55.673Z,33.10
2022-09-06T14:07:58.919Z,32.09
2022-09-06T14:13:01.857Z,31.99
2022-09-06T14:18:05.091Z,32.35
2022-09-06T14:23:08.624Z,32.48
2022-09-06T14:28:11.801Z,31.46
2022-09-06T14:33:15.154Z,32.01
2022-09-06T14:38:18.123Z,31.92
2022-09-06T14:43:21.079Z,31.17
2022-09-06T14:48:30.394Z,31.92
2022-09-06T14:53:40.322Z,31.98
2022-09-06T14:58:44.017Z,31.25
2022-09-06T15:03:57.823Z,31.44
2022-09-06T15:09:01.217Z,30.93
2022-09-06T15:14:12.624Z,31.06
2022-09-06T15:19:15.962Z,30.76
2022-09-06T15:24:20.215Z,30.16
2022-09-06T15:29:23.787Z,29.90
2022-09-06T15:34:27.305Z,29.29
2022-09-06T15:39:30.529Z,29.22
2022-09-06T15:44:34.814Z,29.15
2022-09-06T15:49:38.086Z,29.05
2022-09-06T15:54:59.762Z,28.64
2022-09-06T16:00:03.327Z,28.16
2022-09-06T16:05:07.737Z,28.21
2022-09-06T16:10:14.259Z,28.06
2022-09-06T16:15:17.779Z,27.72
2022-09-06T16:20:21.976Z,27.24
2022-09-06T16:25:25.304Z,26.59
2022-09-06T16:30:28.589Z,26.25
2022-09-06T16:35:32.153Z,26.05
2022-09-06T16:40:37.150Z,25.66
2022-09-06T16:45:40.986Z,25.33
2022-09-06T16:50:44.691Z,25.01
2022-09-06T16:55:48.878Z,24.75
2022-09-06T17:00:52.365Z,24.53
2022-09-06T17:05:55.932Z,24.37
2022-09-06T17:11:08.265Z,24.19
2022-09-06T17:16:30.444Z,24.02
2022-09-06T17:21:34.116Z,23.83
2022-09-06T17:26:40.081Z,23.70
2022-09-06T17:31:43.570Z,23.49
2022-09-06T17:36:46.816Z,23.35
2022-09-06T17:41:53.642Z,23.17
2022-09-06T17:47:14.046Z,22.98
2022-09-06T17:52:17.692Z,22.78
2022-09-06T17:57:20.752Z,22.56
2022-09-06T18:02:23.789Z,22.33
2022-09-06T18:07:26.723Z,22.10
2022-09-06T18:12:31.200Z,22.01
2022-09-06T18:17:34.322Z,21.72
2022-09-06T18:22:38.969Z,21.57
2022-09-06T18:27:42.341Z,21.49
2022-09-06T18:32:46.333Z,21.27
2022-09-06T18:37:49.892Z,21.11
2022-09-06T18:42:52.916Z,20.95
2022-09-06T18:47:56.554Z,20.94
2022-09-06T18:52:59.963Z,20.83
2022-09-06T18:58:02.989Z,20.74
2022-09-06T19:03:07.144Z,20.54
2022-09-06T19:08:11.216Z,20.43
2022-09-06T19:13:14.679Z,20.32
2022-09-06T19:18:20.313Z,20.22
2022-09-06T19:23:23.472Z,20.34
2022-09-06T19:28:27.526Z,20.48
2022-09-06T19:33:34.312Z,20.78
2022-09-06T19:39:01.990Z,20.97
2022-09-06T19:44:06.096Z,21.01
2022-09-06T19:49:09.626Z,20.94
2022-09-06T19:54:13.437Z,20.89
2022-09-06T19:59:18.094Z,20.87
2022-09-06T20:04:21.430Z,20.80
2022-09-06T20:09:24.634Z,20.93
2022-09-06T20:14:27.634Z,20.92
